Bixby, South Dakota
Current Conditions -  °F | °C
As of 11:53 PM on Friday 24 Oct 2014 (Local Time) from KHEI Reporting Station
Overcast Overcast  
Wind Chill: 48°   Ceiling: 11000
Heat Index: 48°   Visibility: 10mi
Dew Point: 32°   Wind: 0mph
Humidity: 54%   Direction: NA
Pressure: 30.12"   Gusts: NA
Location:  45.5161°N, 102.519°W
Report Text: KHEI 250553Z AUTO 00000KT 10SM OVC110 09/00 A3012 RMK AO2 SLP197 T00890000 10122 20083 51010
Loading
Personal Weather Stations






























Interactive Weather Map
Tropical Storm Tracking
New forecast layout! Learn more

10-Day Weather Forecast

Advertisements
Track Severe Weather on mobile